Buoy 21539

sailwx.info

Track history (hours):
 
Tides and Currents Weather Stations Pressure Air Temp Water Temp Dewpoint Dewpoint Depression Visibility Wind Speed Wind Dir Waves Ship Positions

Drifting buoy 21539

Last reported at 2015-Jul-04 18:10 UTC. Time now 2015-Jul-04 20:45 UTC.
Position N 47°09' W 173°53'.

Barometer 1001.6 mb
Water temperature 7.8 ° C

Date/timePositionNaut miles runAvg speedWind from/ knotsBaromVisibWave heightAir tempDewpointWater temp
2015-Jul-04 18:10N 47°09' W 173°53'2 0.2 1001.6 7.8
2015-Jul-04 05:10N 47°09' W 173°56'1 0.2 1001.9 7.9
2015-Jul-04 01:10N 47°08' W 173°57'0 0.2 1002.7 7.9
2015-Jul-03 23:10N 47°08' W 173°57'1 0.4 1003.2 7.8
2015-Jul-03 20:10N 47°07' W 173°58'0 0.1 1003.6 7.8
2015-Jul-03 16:10N 47°07' W 173°59'1 0.2 1003.2 7.7
2015-Jul-03 13:10N 47°07' W 173°60'1 0.2 1003.3 7.7
2015-Jul-03 08:10N 47°06' W 173°60'1 0.4 1004.0 7.7
2015-Jul-03 06:10N 47°06' W 173°59'2 0.6 1004.1 7.8
2015-Jul-03 03:10N 47°06' W 174°01'1 0.7 1004.8 7.8
2015-Jul-03 01:10N 47°05' W 174°01'0 0.0 1005.2 7.7
2015-Jul-03 00:10N 47°05' W 174°01'1 0.6 1005.5 7.7
2015-Jul-02 22:10N 47°05' W 174°03'1 0.2 1006.2 7.7
2015-Jul-02 16:10N 47°06' W 174°04'2 0.2 1006.9 7.6
2015-Jul-02 08:10N 47°04' W 174°05'2 0.3 1009.0 7.7
2015-Jul-02 01:10N 47°06' W 174°07'1 0.1 1008.8 7.7
2015-Jul-01 19:10N 47°05' W 174°07'1 0.6 1007.9 7.6
2015-Jul-01 17:10N 47°06' W 174°08'1 0.1 1007.2 7.6
2015-Jul-01 09:10N 47°05' W 174°10'3 0.3 1006.6 7.6
2015-Jun-30 22:10N 47°02' W 174°10'2 1.0 1008.3 7.5
2015-Jun-30 20:10N 47°01' W 174°08'1 0.1 1009.1 7.5
2015-Jun-30 14:10N 47°01' W 174°07'1 0.3 1009.4 7.5
2015-Jun-30 09:10N 47°00' W 174°05'1 0.2 1009.3 7.5
2015-Jun-30 05:10N 47°00' W 174°04'1 0.6 1006.9 7.6
2015-Jun-30 04:10N 46°60' W 174°04'1 0.3 1006.2 7.6
2015-Jun-29 23:10N 46°59' W 174°02'2 0.3 1004.2 7.6
2015-Jun-29 16:10N 46°58' W 173°59'0 0.0 999.3 7.5
2015-Jun-29 15:10N 46°58' W 173°59'1 0.6 998.7 7.5
2015-Jun-29 14:10N 46°58' W 173°59'1 1.2 998.2 7.6
2015-Jun-29 13:10N 46°57' W 173°59'4 0.4 998.3 7.6
2015-Jun-29 03:10N 46°54' W 173°54'4 1.4 1001.3 7.8
2015-Jun-29 00:10N 46°50' W 173°54'0 0.0 1005.4 8.0
2015-Jun-28 23:10N 46°50' W 173°54'2 0.5 1006.8 8.0
2015-Jun-28 20:10N 46°49' W 173°54'1 0.2 1011.5 8.0
2015-Jun-28 15:10N 46°48' W 173°54'3 0.1 1015.9 8.4
2015-Jun-27 17:10N 46°46' W 173°57'1 1.0 1025.5 8.2
2015-Jun-27 16:10N 46°45' W 173°58'1 0.1 1025.2 8.2
2015-Jun-27 05:10N 46°45' W 173°56'1 0.4 1024.5 8.2
2015-Jun-27 03:10N 46°45' W 173°57'2 0.2 1023.7 8.1
2015-Jun-26 17:10N 46°43' W 173°56'0 0.1 1021.8 8.0
2015-Jun-26 13:10N 46°43' W 173°55'0 0.1 1021.1 8.0
2015-Jun-26 09:10N 46°43' W 173°55'0 0.2 1021.7 8.1
2015-Jun-26 08:10N 46°43' W 173°55'1 0.9 1021.9 8.2
2015-Jun-26 07:10N 46°43' W 173°56'0 0.0 1021.7 8.2
2015-Jun-26 06:10N 46°43' W 173°56'1 0.4 1021.7 8.3
2015-Jun-26 04:10N 46°42' W 173°57'0 0.4 1021.9 8.3
2015-Jun-26 03:10N 46°41' W 173°56'1 0.9 1022.2 8.3
2015-Jun-26 02:10N 46°41' W 173°56'0 0.3 1022.3 8.4
2015-Jun-26 01:10N 46°41' W 173°56'1 0.3 1022.8 8.4
2015-Jun-25 22:10N 46°42' W 173°54'0 0.4 1023.8 8.4
2015-Jun-25 21:10N 46°42' W 173°54'1 0.5 1023.8 8.3
2015-Jun-25 20:10N 46°42' W 173°55'0 0.0 1024.4 8.1
2015-Jun-25 18:10N 46°42' W 173°55'1 0.7 1024.3 8.0
2015-Jun-25 17:10N 46°42' W 173°56'1 0.6 1024.7 8.0
2015-Jun-25 15:10N 46°41' W 173°57'0 0.0 1024.3 8.1
2015-Jun-25 14:10N 46°41' W 173°57'1 0.8 1024.0 8.1
2015-Jun-25 13:10N 46°40' W 173°56'1 0.2 1024.3 8.1
2015-Jun-25 08:10N 46°40' W 173°55'0 0.3 1024.8 8.0
2015-Jun-25 07:10N 46°40' W 173°55'0 0.4 1024.2 8.0
2015-Jun-25 06:10N 46°40' W 173°55'1 1.0 1023.8 8.0
2015-Jun-25 05:10N 46°41' W 173°55'0 0.2 1023.8 8.0
2015-Jun-25 03:10N 46°42' W 173°55'2 0.4 1023.7 8.1
2015-Jun-24 23:10N 46°41' W 173°57'1 0.3 1024.2 8.0
2015-Jun-24 21:10N 46°40' W 173°58'1 0.6 1023.9 7.8
2015-Jun-24 20:10N 46°40' W 173°57'0 0.0 1023.8 7.7
2015-Jun-24 18:10N 46°40' W 173°57'   1023.5 7.6
Track history (hours):
 
Tides and Currents Weather Stations Pressure Air Temp Water Temp Dewpoint Dewpoint Depression Visibility Wind Speed Wind Dir Waves Ship Positions

Drifting buoy 21539

Last reported at 2015-Jul-04 18:10 UTC. Time now 2015-Jul-04 20:45 UTC.
Position N 47°09' W 173°53'.

Barometer 1001.6 mb
Water temperature 7.8 ° C

Date/timePositionNaut miles runAvg speedWind from/ knotsBaromVisibWave heightAir tempDewpointWater temp
2015-Jul-04 18:10N 47°09' W 173°53'2 0.2 1001.6 7.8
2015-Jul-04 05:10N 47°09' W 173°56'1 0.2 1001.9 7.9
2015-Jul-04 01:10N 47°08' W 173°57'0 0.2 1002.7 7.9
2015-Jul-03 23:10N 47°08' W 173°57'1 0.4 1003.2 7.8
2015-Jul-03 20:10N 47°07' W 173°58'0 0.1 1003.6 7.8
2015-Jul-03 16:10N 47°07' W 173°59'1 0.2 1003.2 7.7
2015-Jul-03 13:10N 47°07' W 173°60'1 0.2 1003.3 7.7
2015-Jul-03 08:10N 47°06' W 173°60'1 0.4 1004.0 7.7
2015-Jul-03 06:10N 47°06' W 173°59'2 0.6 1004.1 7.8
2015-Jul-03 03:10N 47°06' W 174°01'1 0.7 1004.8 7.8
2015-Jul-03 01:10N 47°05' W 174°01'0 0.0 1005.2 7.7
2015-Jul-03 00:10N 47°05' W 174°01'1 0.6 1005.5 7.7
2015-Jul-02 22:10N 47°05' W 174°03'1 0.2 1006.2 7.7
2015-Jul-02 16:10N 47°06' W 174°04'2 0.2 1006.9 7.6
2015-Jul-02 08:10N 47°04' W 174°05'2 0.3 1009.0 7.7
2015-Jul-02 01:10N 47°06' W 174°07'1 0.1 1008.8 7.7
2015-Jul-01 19:10N 47°05' W 174°07'1 0.6 1007.9 7.6
2015-Jul-01 17:10N 47°06' W 174°08'1 0.1 1007.2 7.6
2015-Jul-01 09:10N 47°05' W 174°10'3 0.3 1006.6 7.6
2015-Jun-30 22:10N 47°02' W 174°10'2 1.0 1008.3 7.5
2015-Jun-30 20:10N 47°01' W 174°08'1 0.1 1009.1 7.5
2015-Jun-30 14:10N 47°01' W 174°07'1 0.3 1009.4 7.5
2015-Jun-30 09:10N 47°00' W 174°05'1 0.2 1009.3 7.5
2015-Jun-30 05:10N 47°00' W 174°04'1 0.6 1006.9 7.6
2015-Jun-30 04:10N 46°60' W 174°04'1 0.3 1006.2 7.6
2015-Jun-29 23:10N 46°59' W 174°02'2 0.3 1004.2 7.6
2015-Jun-29 16:10N 46°58' W 173°59'0 0.0 999.3 7.5
2015-Jun-29 15:10N 46°58' W 173°59'1 0.6 998.7 7.5
2015-Jun-29 14:10N 46°58' W 173°59'1 1.2 998.2 7.6
2015-Jun-29 13:10N 46°57' W 173°59'4 0.4 998.3 7.6
2015-Jun-29 03:10N 46°54' W 173°54'4 1.4 1001.3 7.8
2015-Jun-29 00:10N 46°50' W 173°54'0 0.0 1005.4 8.0
2015-Jun-28 23:10N 46°50' W 173°54'2 0.5 1006.8 8.0
2015-Jun-28 20:10N 46°49' W 173°54'1 0.2 1011.5 8.0
2015-Jun-28 15:10N 46°48' W 173°54'3 0.1 1015.9 8.4
2015-Jun-27 17:10N 46°46' W 173°57'1 1.0 1025.5 8.2
2015-Jun-27 16:10N 46°45' W 173°58'1 0.1 1025.2 8.2
2015-Jun-27 05:10N 46°45' W 173°56'1 0.4 1024.5 8.2
2015-Jun-27 03:10N 46°45' W 173°57'2 0.2 1023.7 8.1
2015-Jun-26 17:10N 46°43' W 173°56'0 0.1 1021.8 8.0
2015-Jun-26 13:10N 46°43' W 173°55'0 0.1 1021.1 8.0
2015-Jun-26 09:10N 46°43' W 173°55'0 0.2 1021.7 8.1
2015-Jun-26 08:10N 46°43' W 173°55'1 0.9 1021.9 8.2
2015-Jun-26 07:10N 46°43' W 173°56'0 0.0 1021.7 8.2
2015-Jun-26 06:10N 46°43' W 173°56'1 0.4 1021.7 8.3
2015-Jun-26 04:10N 46°42' W 173°57'0 0.4 1021.9 8.3
2015-Jun-26 03:10N 46°41' W 173°56'1 0.9 1022.2 8.3
2015-Jun-26 02:10N 46°41' W 173°56'0 0.3 1022.3 8.4
2015-Jun-26 01:10N 46°41' W 173°56'1 0.3 1022.8 8.4
2015-Jun-25 22:10N 46°42' W 173°54'0 0.4 1023.8 8.4
2015-Jun-25 21:10N 46°42' W 173°54'1 0.5 1023.8 8.3
2015-Jun-25 20:10N 46°42' W 173°55'0 0.0 1024.4 8.1
2015-Jun-25 18:10N 46°42' W 173°55'1 0.7 1024.3 8.0
2015-Jun-25 17:10N 46°42' W 173°56'1 0.6 1024.7 8.0
2015-Jun-25 15:10N 46°41' W 173°57'0 0.0 1024.3 8.1
2015-Jun-25 14:10N 46°41' W 173°57'1 0.8 1024.0 8.1
2015-Jun-25 13:10N 46°40' W 173°56'1 0.2 1024.3 8.1
2015-Jun-25 08:10N 46°40' W 173°55'0 0.3 1024.8 8.0
2015-Jun-25 07:10N 46°40' W 173°55'0 0.4 1024.2 8.0
2015-Jun-25 06:10N 46°40' W 173°55'1 1.0 1023.8 8.0
2015-Jun-25 05:10N 46°41' W 173°55'0 0.2 1023.8 8.0
2015-Jun-25 03:10N 46°42' W 173°55'2 0.4 1023.7 8.1
2015-Jun-24 23:10N 46°41' W 173°57'1 0.3 1024.2 8.0
2015-Jun-24 21:10N 46°40' W 173°58'1 0.6 1023.9 7.8
2015-Jun-24 20:10N 46°40' W 173°57'0 0.0 1023.8 7.7
2015-Jun-24 18:10N 46°40' W 173°57'   1023.5 7.6

Dump ship's entire track history